sensor_id;sensor_type;location;lat;lon;timestamp;temperature;humidity
67942;SHT31;54731;42.600;23.476;2024-01-15T00:00:38;-1.84;72.01
67942;SHT31;54731;42.600;23.476;2024-01-15T00:03:04;-1.86;71.98
67942;SHT31;54731;42.600;23.476;2024-01-15T00:05:29;-1.94;72.30
67942;SHT31;54731;42.600;23.476;2024-01-15T00:07:55;-1.94;72.19
67942;SHT31;54731;42.600;23.476;2024-01-15T00:10:20;-1.94;72.27
67942;SHT31;54731;42.600;23.476;2024-01-15T00:12:45;-1.97;72.63
67942;SHT31;54731;42.600;23.476;2024-01-15T00:15:10;-1.99;72.66
67942;SHT31;54731;42.600;23.476;2024-01-15T00:17:36;-2.02;72.86
67942;SHT31;54731;42.600;23.476;2024-01-15T00:20:01;-1.99;73.04
67942;SHT31;54731;42.600;23.476;2024-01-15T00:22:26;-2.02;73.29
67942;SHT31;54731;42.600;23.476;2024-01-15T00:24:52;-2.04;73.14
67942;SHT31;54731;42.600;23.476;2024-01-15T00:27:17;-2.08;73.09
67942;SHT31;54731;42.600;23.476;2024-01-15T00:29:42;-2.07;73.33
67942;SHT31;54731;42.600;23.476;2024-01-15T00:32:08;-2.12;73.36
67942;SHT31;54731;42.600;23.476;2024-01-15T00:34:33;-2.17;73.88
67942;SHT31;54731;42.600;23.476;2024-01-15T00:36:58;-2.12;73.35
67942;SHT31;54731;42.600;23.476;2024-01-15T00:39:24;-2.14;73.30
67942;SHT31;54731;42.600;23.476;2024-01-15T00:41:49;-2.14;73.12
67942;SHT31;54731;42.600;23.476;2024-01-15T00:44:14;-2.22;73.32
67942;SHT31;54731;42.600;23.476;2024-01-15T00:46:44;-2.22;73.52
67942;SHT31;54731;42.600;23.476;2024-01-15T00:49:09;-2.28;73.81
67942;SHT31;54731;42.600;23.476;2024-01-15T00:51:34;-2.14;73.40
67942;SHT31;54731;42.600;23.476;2024-01-15T00:54:00;-2.18;73.99
67942;SHT31;54731;42.600;23.476;2024-01-15T00:56:25;-2.24;73.59
67942;SHT31;54731;42.600;23.476;2024-01-15T00:58:50;-2.31;73.99
67942;SHT31;54731;42.600;23.476;2024-01-15T01:01:15;-2.29;74.47
67942;SHT31;54731;42.600;23.476;2024-01-15T01:03:41;-2.22;74.59
67942;SHT31;54731;42.600;23.476;2024-01-15T01:06:06;-2.29;74.46
67942;SHT31;54731;42.600;23.476;2024-01-15T01:08:31;-2.32;74.38
67942;SHT31;54731;42.600;23.476;2024-01-15T01:10:57;-2.37;74.28
67942;SHT31;54731;42.600;23.476;2024-01-15T01:13:22;-2.29;74.76
67942;SHT31;54731;42.600;23.476;2024-01-15T01:15:48;-2.19;74.54
67942;SHT31;54731;42.600;23.476;2024-01-15T01:18:13;-2.29;74.38
67942;SHT31;54731;42.600;23.476;2024-01-15T01:20:38;-2.18;73.61
67942;SHT31;54731;42.600;23.476;2024-01-15T01:23:04;-2.18;73.24
67942;SHT31;54731;42.600;23.476;2024-01-15T01:25:29;-2.27;73.63
67942;SHT31;54731;42.600;23.476;2024-01-15T01:27:54;-2.29;74.00
67942;SHT31;54731;42.600;23.476;2024-01-15T01:30:19;-2.29;74.04
67942;SHT31;54731;42.600;23.476;2024-01-15T01:32:45;-2.49;75.24
67942;SHT31;54731;42.600;23.476;2024-01-15T01:35:10;-2.39;74.88
67942;SHT31;54731;42.600;23.476;2024-01-15T01:37:35;-2.48;74.86
67942;SHT31;54731;42.600;23.476;2024-01-15T01:40:01;-2.42;74.89
67942;SHT31;54731;42.600;23.476;2024-01-15T01:42:26;-2.49;74.78
67942;SHT31;54731;42.600;23.476;2024-01-15T01:44:51;-2.44;74.99
67942;SHT31;54731;42.600;23.476;2024-01-15T01:47:16;-2.46;74.66
67942;SHT31;54731;42.600;23.476;2024-01-15T01:49:42;-2.41;74.73
67942;SHT31;54731;42.600;23.476;2024-01-15T01:52:09;-2.45;74.31
67942;SHT31;54731;42.600;23.476;2024-01-15T01:54:35;-2.46;74.87
67942;SHT31;54731;42.600;23.476;2024-01-15T01:57:02;-2.34;74.45
67942;SHT31;54731;42.600;23.476;2024-01-15T01:59:29;-2.32;74.37
67942;SHT31;54731;42.600;23.476;2024-01-15T02:01:55;-2.35;74.36
67942;SHT31;54731;42.600;23.476;2024-01-15T02:04:22;-2.42;74.41
67942;SHT31;54731;42.600;23.476;2024-01-15T02:06:48;-2.44;74.57
67942;SHT31;54731;42.600;23.476;2024-01-15T02:09:13;-2.46;74.61
67942;SHT31;54731;42.600;23.476;2024-01-15T02:11:39;-2.49;74.79
67942;SHT31;54731;42.600;23.476;2024-01-15T02:14:04;-2.56;74.70
67942;SHT31;54731;42.600;23.476;2024-01-15T02:16:29;-2.61;74.88
67942;SHT31;54731;42.600;23.476;2024-01-15T02:18:55;-2.51;74.43
67942;SHT31;54731;42.600;23.476;2024-01-15T02:21:20;-2.49;74.32
67942;SHT31;54731;42.600;23.476;2024-01-15T02:23:45;-2.48;74.15
67942;SHT31;54731;42.600;23.476;2024-01-15T02:26:11;-2.51;74.20
67942;SHT31;54731;42.600;23.476;2024-01-15T02:28:37;-2.55;74.72
67942;SHT31;54731;42.600;23.476;2024-01-15T02:31:02;-2.55;74.77
67942;SHT31;54731;42.600;23.476;2024-01-15T02:33:28;-2.51;74.86
67942;SHT31;54731;42.600;23.476;2024-01-15T02:35:53;-2.46;74.83
67942;SHT31;54731;42.600;23.476;2024-01-15T02:38:18;-2.52;75.00
67942;SHT31;54731;42.600;23.476;2024-01-15T02:40:44;-2.51;74.94
67942;SHT31;54731;42.600;23.476;2024-01-15T02:43:10;-2.44;75.09
67942;SHT31;54731;42.600;23.476;2024-01-15T02:45:36;-2.51;75.01
67942;SHT31;54731;42.600;23.476;2024-01-15T02:48:01;-2.51;74.93
67942;SHT31;54731;42.600;23.476;2024-01-15T02:50:27;-2.51;74.82
67942;SHT31;54731;42.600;23.476;2024-01-15T02:52:52;-2.53;75.15
67942;SHT31;54731;42.600;23.476;2024-01-15T02:55:17;-2.49;75.19
67942;SHT31;54731;42.600;23.476;2024-01-15T02:57:43;-2.59;75.29
67942;SHT31;54731;42.600;23.476;2024-01-15T03:00:08;-2.56;75.71
67942;SHT31;54731;42.600;23.476;2024-01-15T03:02:37;-2.55;75.71
67942;SHT31;54731;42.600;23.476;2024-01-15T03:05:03;-2.58;75.84
67942;SHT31;54731;42.600;23.476;2024-01-15T03:07:30;-2.55;75.78
67942;SHT31;54731;42.600;23.476;2024-01-15T03:09:55;-2.58;75.86
67942;SHT31;54731;42.600;23.476;2024-01-15T03:12:20;-2.68;76.32
67942;SHT31;54731;42.600;23.476;2024-01-15T03:14:46;-2.61;76.65
67942;SHT31;54731;42.600;23.476;2024-01-15T03:17:11;-2.48;76.20
67942;SHT31;54731;42.600;23.476;2024-01-15T03:19:36;-2.51;76.19
67942;SHT31;54731;42.600;23.476;2024-01-15T03:22:02;-2.52;76.23
67942;SHT31;54731;42.600;23.476;2024-01-15T03:24:27;-2.49;76.40
67942;SHT31;54731;42.600;23.476;2024-01-15T03:26:52;-2.38;76.17
67942;SHT31;54731;42.600;23.476;2024-01-15T03:29:18;-2.34;75.75
67942;SHT31;54731;42.600;23.476;2024-01-15T03:31:43;-2.32;75.67
67942;SHT31;54731;42.600;23.476;2024-01-15T03:34:08;-2.34;75.85
67942;SHT31;54731;42.600;23.476;2024-01-15T03:36:34;-2.39;76.19
67942;SHT31;54731;42.600;23.476;2024-01-15T03:38:59;-2.34;76.10
67942;SHT31;54731;42.600;23.476;2024-01-15T03:41:24;-2.31;75.88
67942;SHT31;54731;42.600;23.476;2024-01-15T03:43:49;-2.18;75.79
67942;SHT31;54731;42.600;23.476;2024-01-15T03:46:15;-2.25;75.64
67942;SHT31;54731;42.600;23.476;2024-01-15T03:48:40;-2.24;75.61
67942;SHT31;54731;42.600;23.476;2024-01-15T03:51:05;-2.27;75.53
67942;SHT31;54731;42.600;23.476;2024-01-15T03:53:31;-2.29;75.68
67942;SHT31;54731;42.600;23.476;2024-01-15T03:55:56;-2.21;75.44
67942;SHT31;54731;42.600;23.476;2024-01-15T03:58:21;-2.12;75.16
67942;SHT31;54731;42.600;23.476;2024-01-15T04:00:47;-2.11;75.09
67942;SHT31;54731;42.600;23.476;2024-01-15T04:03:12;-2.11;75.02
67942;SHT31;54731;42.600;23.476;2024-01-15T04:05:38;-2.14;75.23
67942;SHT31;54731;42.600;23.476;2024-01-15T04:08:03;-2.17;75.24
67942;SHT31;54731;42.600;23.476;2024-01-15T04:10:29;-2.17;75.40
67942;SHT31;54731;42.600;23.476;2024-01-15T04:12:54;-2.15;75.48
67942;SHT31;54731;42.600;23.476;2024-01-15T04:15:19;-2.18;75.34
67942;SHT31;54731;42.600;23.476;2024-01-15T04:17:45;-2.12;75.14
67942;SHT31;54731;42.600;23.476;2024-01-15T04:20:10;-2.12;75.09
67942;SHT31;54731;42.600;23.476;2024-01-15T04:22:36;-2.11;75.13
67942;SHT31;54731;42.600;23.476;2024-01-15T04:25:01;-2.17;75.26
67942;SHT31;54731;42.600;23.476;2024-01-15T04:27:27;-2.27;75.44
67942;SHT31;54731;42.600;23.476;2024-01-15T04:29:52;-2.24;75.63
67942;SHT31;54731;42.600;23.476;2024-01-15T04:32:18;-2.19;75.34
67942;SHT31;54731;42.600;23.476;2024-01-15T04:34:43;-2.09;74.93
67942;SHT31;54731;42.600;23.476;2024-01-15T04:37:08;-2.11;74.72
67942;SHT31;54731;42.600;23.476;2024-01-15T04:39:33;-2.17;74.74
67942;SHT31;54731;42.600;23.476;2024-01-15T04:41:59;-2.21;75.06
67942;SHT31;54731;42.600;23.476;2024-01-15T04:44:24;-2.12;74.85
67942;SHT31;54731;42.600;23.476;2024-01-15T04:46:49;-2.11;74.44
67942;SHT31;54731;42.600;23.476;2024-01-15T04:49:15;-2.14;74.21
67942;SHT31;54731;42.600;23.476;2024-01-15T04:51:40;-2.15;74.28
67942;SHT31;54731;42.600;23.476;2024-01-15T04:54:05;-2.11;74.16
67942;SHT31;54731;42.600;23.476;2024-01-15T04:56:31;-2.12;74.19
67942;SHT31;54731;42.600;23.476;2024-01-15T04:58:56;-2.12;74.09
67942;SHT31;54731;42.600;23.476;2024-01-15T05:01:21;-2.08;73.83
67942;SHT31;54731;42.600;23.476;2024-01-15T05:03:47;-2.12;73.87
67942;SHT31;54731;42.600;23.476;2024-01-15T05:06:12;-2.14;73.84
67942;SHT31;54731;42.600;23.476;2024-01-15T05:08:37;-2.08;73.68
67942;SHT31;54731;42.600;23.476;2024-01-15T05:11:03;-2.12;73.85
67942;SHT31;54731;42.600;23.476;2024-01-15T05:13:28;-2.12;74.27
67942;SHT31;54731;42.600;23.476;2024-01-15T05:15:53;-2.07;74.35
67942;SHT31;54731;42.600;23.476;2024-01-15T05:18:19;-1.95;73.78
67942;SHT31;54731;42.600;23.476;2024-01-15T05:20:44;-2.01;74.00
67942;SHT31;54731;42.600;23.476;2024-01-15T05:23:09;-1.94;74.22
67942;SHT31;54731;42.600;23.476;2024-01-15T05:25:35;-1.95;74.14
67942;SHT31;54731;42.600;23.476;2024-01-15T05:28:01;-2.05;74.95
67942;SHT31;54731;42.600;23.476;2024-01-15T05:30:26;-1.94;74.54
67942;SHT31;54731;42.600;23.476;2024-01-15T05:32:51;-1.93;74.35
67942;SHT31;54731;42.600;23.476;2024-01-15T05:35:17;-2.01;73.89
67942;SHT31;54731;42.600;23.476;2024-01-15T05:37:44;-2.04;73.33
67942;SHT31;54731;42.600;23.476;2024-01-15T05:40:10;-2.12;73.66
67942;SHT31;54731;42.600;23.476;2024-01-15T05:42:35;-2.15;73.95
67942;SHT31;54731;42.600;23.476;2024-01-15T05:45:00;-2.17;74.06
67942;SHT31;54731;42.600;23.476;2024-01-15T05:47:26;-2.17;73.89
67942;SHT31;54731;42.600;23.476;2024-01-15T05:49:51;-2.19;73.85
67942;SHT31;54731;42.600;23.476;2024-01-15T05:52:16;-2.19;74.04
67942;SHT31;54731;42.600;23.476;2024-01-15T05:54:41;-2.22;74.51
67942;SHT31;54731;42.600;23.476;2024-01-15T05:57:07;-2.25;74.80
67942;SHT31;54731;42.600;23.476;2024-01-15T05:59:32;-2.25;74.91
67942;SHT31;54731;42.600;23.476;2024-01-15T06:01:57;-2.29;75.15
67942;SHT31;54731;42.600;23.476;2024-01-15T06:04:23;-2.29;75.20
67942;SHT31;54731;42.600;23.476;2024-01-15T06:06:48;-2.25;75.30
67942;SHT31;54731;42.600;23.476;2024-01-15T06:09:13;-2.27;75.71
67942;SHT31;54731;42.600;23.476;2024-01-15T06:11:39;-2.24;75.16
67942;SHT31;54731;42.600;23.476;2024-01-15T06:14:04;-2.27;75.40
67942;SHT31;54731;42.600;23.476;2024-01-15T06:16:29;-2.27;75.42
67942;SHT31;54731;42.600;23.476;2024-01-15T06:18:55;-2.28;75.57
67942;SHT31;54731;42.600;23.476;2024-01-15T06:21:20;-2.24;75.55
67942;SHT31;54731;42.600;23.476;2024-01-15T06:23:45;-2.28;75.43
67942;SHT31;54731;42.600;23.476;2024-01-15T06:26:14;-2.22;74.96
67942;SHT31;54731;42.600;23.476;2024-01-15T06:28:39;-2.18;74.52
67942;SHT31;54731;42.600;23.476;2024-01-15T06:31:06;-2.11;74.02
67942;SHT31;54731;42.600;23.476;2024-01-15T06:33:32;-2.07;74.02
67942;SHT31;54731;42.600;23.476;2024-01-15T06:35:57;-2.11;73.98
67942;SHT31;54731;42.600;23.476;2024-01-15T06:38:22;-2.09;73.98
67942;SHT31;54731;42.600;23.476;2024-01-15T06:40:48;-2.11;74.35
67942;SHT31;54731;42.600;23.476;2024-01-15T06:43:13;-2.21;74.90
67942;SHT31;54731;42.600;23.476;2024-01-15T06:45:38;-2.15;75.15
67942;SHT31;54731;42.600;23.476;2024-01-15T06:48:04;-2.11;75.18
67942;SHT31;54731;42.600;23.476;2024-01-15T06:50:30;-2.08;75.35
67942;SHT31;54731;42.600;23.476;2024-01-15T06:52:55;-2.07;75.62
67942;SHT31;54731;42.600;23.476;2024-01-15T06:55:20;-2.04;75.64
67942;SHT31;54731;42.600;23.476;2024-01-15T06:57:46;-1.98;75.41
67942;SHT31;54731;42.600;23.476;2024-01-15T07:00:11;-1.87;75.34
67942;SHT31;54731;42.600;23.476;2024-01-15T07:02:37;-1.86;75.25
67942;SHT31;54731;42.600;23.476;2024-01-15T07:05:02;-1.78;74.88
67942;SHT31;54731;42.600;23.476;2024-01-15T07:07:27;-1.66;74.64
67942;SHT31;54731;42.600;23.476;2024-01-15T07:09:53;-1.64;74.48
67942;SHT31;54731;42.600;23.476;2024-01-15T07:12:18;-1.60;74.46
67942;SHT31;54731;42.600;23.476;2024-01-15T07:14:43;-1.53;73.98
67942;SHT31;54731;42.600;23.476;2024-01-15T07:17:09;-1.46;73.63
67942;SHT31;54731;42.600;23.476;2024-01-15T07:19:34;-1.32;72.27
67942;SHT31;54731;42.600;23.476;2024-01-15T07:21:59;-1.22;71.48
67942;SHT31;54731;42.600;23.476;2024-01-15T07:24:24;-1.23;71.02
67942;SHT31;54731;42.600;23.476;2024-01-15T07:26:50;-1.23;70.85
67942;SHT31;54731;42.600;23.476;2024-01-15T07:29:15;-1.20;70.57
67942;SHT31;54731;42.600;23.476;2024-01-15T07:31:40;-1.16;70.82
67942;SHT31;54731;42.600;23.476;2024-01-15T07:34:05;-1.12;70.99
67942;SHT31;54731;42.600;23.476;2024-01-15T07:36:31;-1.16;71.95
67942;SHT31;54731;42.600;23.476;2024-01-15T07:38:56;-1.22;72.57
67942;SHT31;54731;42.600;23.476;2024-01-15T07:41:21;-1.16;73.17
67942;SHT31;54731;42.600;23.476;2024-01-15T07:43:47;-1.15;73.11
67942;SHT31;54731;42.600;23.476;2024-01-15T07:46:12;-1.12;73.19
67942;SHT31;54731;42.600;23.476;2024-01-15T07:48:37;-1.05;73.30
67942;SHT31;54731;42.600;23.476;2024-01-15T07:51:03;-1.09;73.42
67942;SHT31;54731;42.600;23.476;2024-01-15T07:53:28;-1.06;73.78
67942;SHT31;54731;42.600;23.476;2024-01-15T07:55:53;-0.96;73.55
67942;SHT31;54731;42.600;23.476;2024-01-15T07:58:19;-0.88;73.17
67942;SHT31;54731;42.600;23.476;2024-01-15T08:00:44;-0.80;72.07
67942;SHT31;54731;42.600;23.476;2024-01-15T08:03:10;-0.78;71.07
67942;SHT31;54731;42.600;23.476;2024-01-15T08:05:36;-0.77;71.32
67942;SHT31;54731;42.600;23.476;2024-01-15T08:08:02;-0.74;70.54
67942;SHT31;54731;42.600;23.476;2024-01-15T08:10:28;-0.67;69.74
67942;SHT31;54731;42.600;23.476;2024-01-15T08:12:54;-0.62;69.01
67942;SHT31;54731;42.600;23.476;2024-01-15T08:15:20;-0.51;69.01
67942;SHT31;54731;42.600;23.476;2024-01-15T08:17:46;-0.48;68.96
67942;SHT31;54731;42.600;23.476;2024-01-15T08:20:12;-0.44;68.62
67942;SHT31;54731;42.600;23.476;2024-01-15T08:22:38;-0.41;68.74
67942;SHT31;54731;42.600;23.476;2024-01-15T08:25:04;-0.36;68.74
67942;SHT31;54731;42.600;23.476;2024-01-15T08:27:29;-0.30;68.69
67942;SHT31;54731;42.600;23.476;2024-01-15T08:29:54;-0.24;68.68
67942;SHT31;54731;42.600;23.476;2024-01-15T08:32:20;-0.23;68.97
67942;SHT31;54731;42.600;23.476;2024-01-15T08:34:45;-0.18;68.89
67942;SHT31;54731;42.600;23.476;2024-01-15T08:37:10;-0.17;67.56
67942;SHT31;54731;42.600;23.476;2024-01-15T08:39:35;-0.11;67.33
67942;SHT31;54731;42.600;23.476;2024-01-15T08:42:01;-0.06;67.13
67942;SHT31;54731;42.600;23.476;2024-01-15T08:44:26;-0.06;67.49
67942;SHT31;54731;42.600;23.476;2024-01-15T08:46:51;0.04;66.73
67942;SHT31;54731;42.600;23.476;2024-01-15T08:49:17;0.03;66.28
67942;SHT31;54731;42.600;23.476;2024-01-15T08:51:42;0.04;67.89
67942;SHT31;54731;42.600;23.476;2024-01-15T08:54:07;0.10;68.80
67942;SHT31;54731;42.600;23.476;2024-01-15T08:56:33;0.24;69.00
67942;SHT31;54731;42.600;23.476;2024-01-15T08:58:58;-0.02;71.76
67942;SHT31;54731;42.600;23.476;2024-01-15T09:01:23;-0.03;72.37
67942;SHT31;54731;42.600;23.476;2024-01-15T09:03:49;0.08;72.54
67942;SHT31;54731;42.600;23.476;2024-01-15T09:06:14;0.13;71.28
67942;SHT31;54731;42.600;23.476;2024-01-15T09:08:39;0.24;71.77
67942;SHT31;54731;42.600;23.476;2024-01-15T09:11:05;0.32;71.91
67942;SHT31;54731;42.600;23.476;2024-01-15T09:13:30;0.38;72.17
67942;SHT31;54731;42.600;23.476;2024-01-15T09:15:55;0.47;71.40
67942;SHT31;54731;42.600;23.476;2024-01-15T09:18:20;0.41;71.10
67942;SHT31;54731;42.600;23.476;2024-01-15T09:20:46;0.34;71.02
67942;SHT31;54731;42.600;23.476;2024-01-15T09:23:11;0.29;71.12
67942;SHT31;54731;42.600;23.476;2024-01-15T09:25:36;0.32;70.82
67942;SHT31;54731;42.600;23.476;2024-01-15T09:28:02;0.44;70.63
67942;SHT31;54731;42.600;23.476;2024-01-15T09:30:27;0.52;69.32
67942;SHT31;54731;42.600;23.476;2024-01-15T09:32:52;0.52;68.15
67942;SHT31;54731;42.600;23.476;2024-01-15T09:35:18;0.59;66.77
67942;SHT31;54731;42.600;23.476;2024-01-15T09:37:43;0.59;69.48
67942;SHT31;54731;42.600;23.476;2024-01-15T09:40:12;0.58;69.44
67942;SHT31;54731;42.600;23.476;2024-01-15T09:42:38;0.61;68.78
67942;SHT31;54731;42.600;23.476;2024-01-15T09:45:03;0.51;67.51
67942;SHT31;54731;42.600;23.476;2024-01-15T09:47:29;0.38;68.16
67942;SHT31;54731;42.600;23.476;2024-01-15T09:49:55;0.35;68.89
67942;SHT31;54731;42.600;23.476;2024-01-15T09:52:20;0.44;68.02
67942;SHT31;54731;42.600;23.476;2024-01-15T09:54:46;0.51;66.94
67942;SHT31;54731;42.600;23.476;2024-01-15T09:57:12;0.45;66.65
67942;SHT31;54731;42.600;23.476;2024-01-15T09:59:38;0.48;65.42
67942;SHT31;54731;42.600;23.476;2024-01-15T10:02:04;0.45;65.49
67942;SHT31;54731;42.600;23.476;2024-01-15T10:04:30;0.54;64.93
67942;SHT31;54731;42.600;23.476;2024-01-15T10:06:56;0.59;64.45
67942;SHT31;54731;42.600;23.476;2024-01-15T10:09:22;0.65;63.96
67942;SHT31;54731;42.600;23.476;2024-01-15T10:11:48;0.66;64.17
67942;SHT31;54731;42.600;23.476;2024-01-15T10:14:13;0.72;64.37
67942;SHT31;54731;42.600;23.476;2024-01-15T10:16:39;0.80;64.18
67942;SHT31;54731;42.600;23.476;2024-01-15T10:19:05;0.82;64.13
67942;SHT31;54731;42.600;23.476;2024-01-15T10:21:32;0.55;68.07
67942;SHT31;54731;42.600;23.476;2024-01-15T10:24:00;0.57;68.35
67942;SHT31;54731;42.600;23.476;2024-01-15T10:26:25;0.62;68.43
67942;SHT31;54731;42.600;23.476;2024-01-15T10:28:51;0.40;69.76
67942;SHT31;54731;42.600;23.476;2024-01-15T10:31:17;0.32;69.57
67942;SHT31;54731;42.600;23.476;2024-01-15T10:33:42;0.41;69.41
67942;SHT31;54731;42.600;23.476;2024-01-15T10:36:09;0.44;69.24
67942;SHT31;54731;42.600;23.476;2024-01-15T10:38:36;0.54;69.37
67942;SHT31;54731;42.600;23.476;2024-01-15T10:41:01;0.59;69.17
67942;SHT31;54731;42.600;23.476;2024-01-15T10:43:26;0.68;68.80
67942;SHT31;54731;42.600;23.476;2024-01-15T10:45:52;0.70;68.18
67942;SHT31;54731;42.600;23.476;2024-01-15T10:48:18;0.68;68.16
67942;SHT31;54731;42.600;23.476;2024-01-15T10:50:44;0.78;68.64
67942;SHT31;54731;42.600;23.476;2024-01-15T10:53:12;0.86;69.60
67942;SHT31;54731;42.600;23.476;2024-01-15T10:55:38;0.99;69.40
67942;SHT31;54731;42.600;23.476;2024-01-15T10:58:04;0.97;68.88
67942;SHT31;54731;42.600;23.476;2024-01-15T11:00:29;1.02;67.82
67942;SHT31;54731;42.600;23.476;2024-01-15T11:02:55;1.06;68.30
67942;SHT31;54731;42.600;23.476;2024-01-15T11:05:22;1.16;68.39
67942;SHT31;54731;42.600;23.476;2024-01-15T11:07:48;1.29;68.39
67942;SHT31;54731;42.600;23.476;2024-01-15T11:10:45;1.48;68.02
67942;SHT31;54731;42.600;23.476;2024-01-15T11:13:21;1.63;66.97
67942;SHT31;54731;42.600;23.476;2024-01-15T11:16:00;1.73;66.10
67942;SHT31;54731;42.600;23.476;2024-01-15T11:18:27;1.74;66.77
67942;SHT31;54731;42.600;23.476;2024-01-15T11:28:58;1.95;66.44
67942;SHT31;54731;42.600;23.476;2024-01-15T11:34:12;2.15;66.90
67942;SHT31;54731;42.600;23.476;2024-01-15T11:41:59;2.52;66.56
67942;SHT31;54731;42.600;23.476;2024-01-15T11:44:25;2.63;66.47
67942;SHT31;54731;42.600;23.476;2024-01-15T11:47:01;2.69;66.69
67942;SHT31;54731;42.600;23.476;2024-01-15T11:49:49;2.73;66.73
67942;SHT31;54731;42.600;23.476;2024-01-15T11:52:19;2.79;66.35
67942;SHT31;54731;42.600;23.476;2024-01-15T11:57:42;2.96;66.26
67942;SHT31;54731;42.600;23.476;2024-01-15T12:00:10;3.04;66.29
67942;SHT31;54731;42.600;23.476;2024-01-15T12:02:36;3.05;66.47
67942;SHT31;54731;42.600;23.476;2024-01-15T12:05:02;3.11;66.81
67942;SHT31;54731;42.600;23.476;2024-01-15T12:07:27;3.03;67.43
67942;SHT31;54731;42.600;23.476;2024-01-15T12:09:52;3.00;67.85
67942;SHT31;54731;42.600;23.476;2024-01-15T12:12:24;2.99;68.74
67942;SHT31;54731;42.600;23.476;2024-01-15T12:14:53;2.97;69.02
67942;SHT31;54731;42.600;23.476;2024-01-15T12:17:18;2.96;68.74
67942;SHT31;54731;42.600;23.476;2024-01-15T12:19:44;2.94;68.66
67942;SHT31;54731;42.600;23.476;2024-01-15T12:22:09;3.00;69.15
67942;SHT31;54731;42.600;23.476;2024-01-15T12:24:34;2.89;69.46
67942;SHT31;54731;42.600;23.476;2024-01-15T12:27:00;2.81;69.49
67942;SHT31;54731;42.600;23.476;2024-01-15T12:29:25;2.76;69.52
67942;SHT31;54731;42.600;23.476;2024-01-15T12:31:50;2.77;69.63
67942;SHT31;54731;42.600;23.476;2024-01-15T12:34:17;2.76;69.18
67942;SHT31;54731;42.600;23.476;2024-01-15T12:36:42;2.77;68.80
67942;SHT31;54731;42.600;23.476;2024-01-15T12:39:11;2.66;69.83
67942;SHT31;54731;42.600;23.476;2024-01-15T12:41:37;2.69;70.05
67942;SHT31;54731;42.600;23.476;2024-01-15T12:44:03;2.64;70.34
67942;SHT31;54731;42.600;23.476;2024-01-15T12:46:29;2.67;70.36
67942;SHT31;54731;42.600;23.476;2024-01-15T12:48:55;2.77;70.65
67942;SHT31;54731;42.600;23.476;2024-01-15T12:51:25;2.86;70.58
67942;SHT31;54731;42.600;23.476;2024-01-15T12:53:50;2.81;71.20
67942;SHT31;54731;42.600;23.476;2024-01-15T12:56:15;2.91;70.74
67942;SHT31;54731;42.600;23.476;2024-01-15T12:58:40;2.87;69.66
67942;SHT31;54731;42.600;23.476;2024-01-15T13:01:06;2.84;69.40
67942;SHT31;54731;42.600;23.476;2024-01-15T13:03:31;2.80;69.58
67942;SHT31;54731;42.600;23.476;2024-01-15T13:05:56;2.75;69.75
67942;SHT31;54731;42.600;23.476;2024-01-15T13:08:22;2.73;69.84
67942;SHT31;54731;42.600;23.476;2024-01-15T13:10:47;2.67;70.26
67942;SHT31;54731;42.600;23.476;2024-01-15T13:13:12;2.67;70.32
67942;SHT31;54731;42.600;23.476;2024-01-15T13:15:38;2.57;70.58
67942;SHT31;54731;42.600;23.476;2024-01-15T13:18:03;2.53;70.67
67942;SHT31;54731;42.600;23.476;2024-01-15T13:20:29;2.63;70.20
67942;SHT31;54731;42.600;23.476;2024-01-15T13:22:54;2.69;69.99
67942;SHT31;54731;42.600;23.476;2024-01-15T13:25:19;2.70;70.09
67942;SHT31;54731;42.600;23.476;2024-01-15T13:27:44;2.70;69.98
67942;SHT31;54731;42.600;23.476;2024-01-15T13:30:10;2.76;69.53
67942;SHT31;54731;42.600;23.476;2024-01-15T13:32:36;2.79;69.33
67942;SHT31;54731;42.600;23.476;2024-01-15T13:35:01;2.75;70.45
67942;SHT31;54731;42.600;23.476;2024-01-15T13:37:26;2.91;68.12
67942;SHT31;54731;42.600;23.476;2024-01-15T13:39:52;3.24;65.70
67942;SHT31;54731;42.600;23.476;2024-01-15T13:42:18;3.45;64.73
67942;SHT31;54731;42.600;23.476;2024-01-15T13:44:43;3.52;64.74
67942;SHT31;54731;42.600;23.476;2024-01-15T13:47:08;3.68;63.87
67942;SHT31;54731;42.600;23.476;2024-01-15T13:49:34;3.81;63.75
67942;SHT31;54731;42.600;23.476;2024-01-15T13:51:59;3.78;63.33
67942;SHT31;54731;42.600;23.476;2024-01-15T13:54:24;3.81;62.37
67942;SHT31;54731;42.600;23.476;2024-01-15T13:56:50;3.81;61.85
67942;SHT31;54731;42.600;23.476;2024-01-15T13:59:15;3.81;61.16
67942;SHT31;54731;42.600;23.476;2024-01-15T14:01:40;3.78;61.87
67942;SHT31;54731;42.600;23.476;2024-01-15T14:04:07;3.79;61.77
67942;SHT31;54731;42.600;23.476;2024-01-15T14:06:32;3.75;61.47
67942;SHT31;54731;42.600;23.476;2024-01-15T14:08:57;3.74;61.95
67942;SHT31;54731;42.600;23.476;2024-01-15T14:11:23;3.68;61.46
67942;SHT31;54731;42.600;23.476;2024-01-15T14:13:48;3.66;62.01
67942;SHT31;54731;42.600;23.476;2024-01-15T14:16:13;3.74;61.71
67942;SHT31;54731;42.600;23.476;2024-01-15T14:18:39;3.81;61.24
67942;SHT31;54731;42.600;23.476;2024-01-15T14:21:04;3.81;61.35
67942;SHT31;54731;42.600;23.476;2024-01-15T14:23:29;3.83;61.84
67942;SHT31;54731;42.600;23.476;2024-01-15T14:25:56;3.79;62.95
67942;SHT31;54731;42.600;23.476;2024-01-15T14:28:21;3.95;62.85
67942;SHT31;54731;42.600;23.476;2024-01-15T14:30:46;3.95;62.64
67942;SHT31;54731;42.600;23.476;2024-01-15T14:33:12;3.96;63.60
67942;SHT31;54731;42.600;23.476;2024-01-15T14:35:37;3.87;63.04
67942;SHT31;54731;42.600;23.476;2024-01-15T14:38:02;3.85;62.17
67942;SHT31;54731;42.600;23.476;2024-01-15T14:40:28;3.85;61.54
67942;SHT31;54731;42.600;23.476;2024-01-15T14:42:53;3.90;60.89
67942;SHT31;54731;42.600;23.476;2024-01-15T14:45:19;3.87;61.76
67942;SHT31;54731;42.600;23.476;2024-01-15T14:47:44;3.95;61.01
67942;SHT31;54731;42.600;23.476;2024-01-15T14:50:10;3.90;61.08
67942;SHT31;54731;42.600;23.476;2024-01-15T14:52:36;3.82;61.66
67942;SHT31;54731;42.600;23.476;2024-01-15T14:55:01;3.75;62.02
67942;SHT31;54731;42.600;23.476;2024-01-15T14:57:27;3.66;62.35
67942;SHT31;54731;42.600;23.476;2024-01-15T14:59:52;3.64;62.10
67942;SHT31;54731;42.600;23.476;2024-01-15T15:02:18;3.61;62.55
67942;SHT31;54731;42.600;23.476;2024-01-15T15:04:44;3.45;63.20
67942;SHT31;54731;42.600;23.476;2024-01-15T15:07:09;3.46;62.78
67942;SHT31;54731;42.600;23.476;2024-01-15T15:09:35;3.59;62.62
67942;SHT31;54731;42.600;23.476;2024-01-15T15:12:00;3.44;63.70
67942;SHT31;54731;42.600;23.476;2024-01-15T15:14:25;3.39;63.69
67942;SHT31;54731;42.600;23.476;2024-01-15T15:16:51;3.44;63.48
67942;SHT31;54731;42.600;23.476;2024-01-15T15:19:16;3.38;63.45
67942;SHT31;54731;42.600;23.476;2024-01-15T15:21:41;3.30;63.60
67942;SHT31;54731;42.600;23.476;2024-01-15T15:24:07;3.35;63.58
67942;SHT31;54731;42.600;23.476;2024-01-15T15:26:32;3.28;63.27
67942;SHT31;54731;42.600;23.476;2024-01-15T15:28:57;3.24;64.22
67942;SHT31;54731;42.600;23.476;2024-01-15T15:31:23;3.21;63.52